createdAt,value
2019-01-24T00:01:04.015Z,93839.59
2019-01-24T00:03:33.095Z,93838.84
2019-01-24T00:06:02.188Z,93834.48
2019-01-24T00:08:31.266Z,93840.48
2019-01-24T00:11:00.345Z,93836.04
2019-01-24T00:13:29.436Z,93840.38
2019-01-24T00:18:45.096Z,93848.28
2019-01-24T00:21:23.299Z,93848.70
2019-01-24T00:24:03.378Z,93854.81
2019-01-24T00:26:32.491Z,93852.84
2019-01-24T00:29:01.585Z,93855.70
2019-01-24T00:31:31.588Z,93853.00
2019-01-24T00:34:06.324Z,93860.87
2019-01-24T00:36:50.010Z,93862.17
2019-01-24T00:39:19.186Z,93865.01
2019-01-24T00:41:51.456Z,93870.95
2019-01-24T00:44:20.795Z,93871.83
2019-01-24T00:51:07.931Z,93872.75
2019-01-24T00:53:38.894Z,93878.53
2019-01-24T00:56:11.518Z,93877.94
2019-01-24T01:01:16.315Z,93887.08
2019-01-24T01:04:16.496Z,93882.73
2019-01-24T01:09:23.298Z,93898.61
2019-01-24T01:11:52.375Z,93895.05
2019-01-24T01:14:21.543Z,93900.41
2019-01-24T01:16:50.619Z,93900.69
2019-01-24T01:19:19.690Z,93904.34
2019-01-24T01:21:48.763Z,93906.79
2019-01-24T01:24:17.825Z,93909.44
2019-01-24T01:27:15.300Z,93910.77
2019-01-24T01:29:44.459Z,93907.75
2019-01-24T01:32:16.767Z,93912.37
2019-01-24T01:35:15.465Z,93911.41
2019-01-24T01:40:47.933Z,93925.09
2019-01-24T01:43:17.018Z,93928.44
2019-01-24T01:45:58.901Z,93934.64
2019-01-24T01:48:28.060Z,93945.83
2019-01-24T01:51:16.356Z,93934.11
2019-01-24T01:56:30.043Z,93946.66
2019-01-24T01:59:13.142Z,93948.23
2019-01-24T02:02:06.383Z,93952.55
2019-01-24T02:04:35.465Z,93954.04
2019-01-24T02:09:48.185Z,93952.95
2019-01-24T02:12:17.289Z,93957.28
2019-01-24T02:14:46.347Z,93954.25
2019-01-24T02:17:16.320Z,93958.72
2019-01-24T02:20:00.588Z,93958.19
2019-01-24T02:22:29.644Z,93951.17
2019-01-24T02:24:58.821Z,93957.06
2019-01-24T02:27:28.384Z,93958.41
2019-01-24T02:30:18.753Z,93962.94
2019-01-24T02:32:47.812Z,93959.27
2019-01-24T02:35:16.866Z,93958.06
2019-01-24T02:38:08.595Z,93954.48
2019-01-24T02:40:38.597Z,93956.85
2019-01-24T02:43:07.689Z,93962.18
2019-01-24T02:45:38.720Z,93968.30
2019-01-24T02:48:12.238Z,93974.69
2019-01-24T02:50:41.421Z,93976.25
2019-01-24T02:55:46.241Z,93979.87
2019-01-24T02:58:20.603Z,93977.05
2019-01-24T03:00:49.691Z,93981.17
2019-01-24T03:03:19.763Z,93981.93
2019-01-24T03:05:48.906Z,93989.02
2019-01-24T03:08:18.956Z,93992.86
2019-01-24T03:14:10.463Z,94007.14
2019-01-24T03:16:39.543Z,94010.56
2019-01-24T03:19:08.650Z,94018.36
2019-01-24T03:21:37.723Z,94022.25
2019-01-24T03:24:06.811Z,94025.83
2019-01-24T03:31:49.289Z,94035.06
2019-01-24T03:34:18.373Z,94039.20
2019-01-24T03:36:47.452Z,94037.32
2019-01-24T03:42:02.898Z,94036.12
2019-01-24T03:44:39.123Z,94038.02
2019-01-24T03:47:08.195Z,94040.34
2019-01-24T03:49:49.927Z,94041.58
2019-01-24T03:52:19.042Z,94041.58
2019-01-24T03:54:48.119Z,94046.17
2019-01-24T03:57:17.200Z,94044.10
2019-01-24T04:05:12.268Z,94054.31
2019-01-24T04:07:52.622Z,94056.02
2019-01-24T04:10:21.698Z,94059.65
2019-01-24T04:12:52.746Z,94062.89
2019-01-24T04:15:22.755Z,94066.23
2019-01-24T04:20:27.565Z,94071.08
2019-01-24T04:22:58.551Z,94072.30
2019-01-24T04:25:27.611Z,94078.39
2019-01-24T04:27:59.710Z,94074.36
2019-01-24T04:30:32.340Z,94074.38
2019-01-24T04:33:03.342Z,94080.20
2019-01-24T04:38:08.745Z,94090.70
2019-01-24T04:40:37.819Z,94091.19
2019-01-24T04:43:06.936Z,94088.30
2019-01-24T04:45:49.739Z,94093.41
2019-01-24T04:48:18.808Z,94101.28
2019-01-24T04:53:26.537Z,94101.56
2019-01-24T04:55:55.649Z,94109.23
2019-01-24T04:58:25.625Z,94113.34
2019-01-24T05:00:54.689Z,94113.30
2019-01-24T05:03:34.496Z,94111.95
2019-01-24T05:06:03.576Z,94113.67
2019-01-24T05:08:33.614Z,94119.58
2019-01-24T05:11:02.678Z,94125.73
2019-01-24T05:13:35.722Z,94131.69
2019-01-24T05:16:05.722Z,94127.47
2019-01-24T05:21:12.463Z,94134.77
2019-01-24T05:23:56.863Z,94139.72
2019-01-24T05:26:39.151Z,94140.98
2019-01-24T05:29:08.231Z,94144.22
2019-01-24T05:31:37.296Z,94147.86
2019-01-24T05:34:07.280Z,94147.06
2019-01-24T05:39:14.058Z,94153.85
2019-01-24T05:44:20.002Z,94154.28
2019-01-24T05:46:49.059Z,94149.30
2019-01-24T05:49:18.161Z,94156.53
2019-01-24T05:51:50.246Z,94159.78
2019-01-24T05:54:21.712Z,94165.20
2019-01-24T05:56:52.690Z,94168.91
2019-01-24T05:59:21.743Z,94170.59
2019-01-24T06:04:29.543Z,94170.36
2019-01-24T06:06:58.633Z,94174.34
2019-01-24T06:09:28.489Z,94181.38
2019-01-24T06:12:01.009Z,94180.84
2019-01-24T06:14:35.761Z,94182.61
2019-01-24T06:17:04.812Z,94186.17
2019-01-24T06:19:34.781Z,94194.58
2019-01-24T06:22:04.690Z,94194.82
2019-01-24T06:24:51.436Z,94196.79
2019-01-24T06:27:20.880Z,94195.14
2019-01-24T06:29:51.955Z,94206.21
2019-01-24T06:32:21.103Z,94208.84
2019-01-24T06:35:02.729Z,94213.05
2019-01-24T06:37:31.789Z,94213.70
2019-01-24T06:40:02.872Z,94215.62
2019-01-24T06:42:35.130Z,94215.22
2019-01-24T06:45:04.198Z,94211.00
2019-01-24T06:47:35.219Z,94218.16
2019-01-24T06:50:04.300Z,94212.97
2019-01-24T06:52:33.401Z,94222.66
2019-01-24T06:55:07.869Z,94216.91
2019-01-24T06:57:36.932Z,94223.84
2019-01-24T07:00:06.717Z,94225.01
2019-01-24T07:02:35.771Z,94232.98
2019-01-24T07:05:04.835Z,94231.51
2019-01-24T07:07:33.928Z,94243.88
2019-01-24T07:10:04.879Z,94238.05
2019-01-24T07:12:34.057Z,94245.61
2019-01-24T07:15:16.941Z,94243.97
2019-01-24T07:20:25.153Z,94261.10
2019-01-24T07:22:54.223Z,94265.16
2019-01-24T07:25:25.213Z,94267.66
2019-01-24T07:27:59.350Z,94267.72
2019-01-24T07:34:39.167Z,94269.08
2019-01-24T07:37:08.247Z,94276.02
2019-01-24T07:42:21.556Z,94284.56
2019-01-24T07:50:05.017Z,94284.08
2019-01-24T07:55:13.335Z,94286.72
2019-01-24T08:00:20.971Z,94296.67
2019-01-24T08:02:50.032Z,94299.66
2019-01-24T08:05:19.091Z,94298.53
2019-01-24T08:07:56.118Z,94301.55
2019-01-24T08:13:30.312Z,94310.69
2019-01-24T08:16:01.272Z,94306.82
2019-01-24T08:18:30.331Z,94307.48
2019-01-24T08:20:59.434Z,94304.33
2019-01-24T08:26:07.653Z,94313.86
2019-01-24T08:28:39.950Z,94314.28
2019-01-24T08:34:07.007Z,94317.06
2019-01-24T08:36:36.072Z,94321.94
2019-01-24T08:39:05.166Z,94319.66
2019-01-24T08:41:34.276Z,94317.55
2019-01-24T08:44:03.335Z,94317.95
2019-01-24T08:46:32.392Z,94322.61
2019-01-24T08:49:01.488Z,94320.33
2019-01-24T08:51:30.568Z,94318.58
2019-01-24T08:53:59.638Z,94318.11
2019-01-24T08:56:31.832Z,94321.03
2019-01-24T08:59:01.828Z,94321.34
2019-01-24T09:01:32.802Z,94321.20
2019-01-24T09:04:01.858Z,94319.09
2019-01-24T09:06:30.966Z,94322.53
2019-01-24T09:09:13.278Z,94326.59
2019-01-24T09:16:59.742Z,94318.12
2019-01-24T09:19:34.811Z,94318.72
2019-01-24T09:22:03.833Z,94321.67
2019-01-24T09:24:33.870Z,94318.27
2019-01-24T09:27:02.910Z,94321.42
2019-01-24T09:29:31.946Z,94330.55
2019-01-24T09:32:01.163Z,94332.26
2019-01-24T09:34:31.171Z,94335.47
2019-01-24T09:37:01.498Z,94340.77
2019-01-24T09:39:38.512Z,94347.34
2019-01-24T09:42:11.307Z,94345.30
2019-01-24T09:44:41.319Z,94352.00
2019-01-24T09:54:57.056Z,94360.22
2019-01-24T09:57:29.599Z,94361.64
2019-01-24T09:59:58.724Z,94368.50
2019-01-24T10:02:30.136Z,94369.37
2019-01-24T10:04:59.201Z,94369.75
2019-01-24T10:07:28.262Z,94376.63
2019-01-24T10:09:57.444Z,94379.20
2019-01-24T10:12:26.511Z,94381.10
2019-01-24T10:14:56.479Z,94380.56
2019-01-24T10:17:27.573Z,94384.50
2019-01-24T10:19:56.616Z,94391.70
2019-01-24T10:22:29.614Z,94387.39
2019-01-24T10:24:58.684Z,94386.48
2019-01-24T10:27:28.050Z,94398.44
2019-01-24T10:29:57.207Z,94384.89
2019-01-24T10:32:26.243Z,94385.97
2019-01-24T10:34:55.313Z,94388.76
2019-01-24T10:37:32.932Z,94385.20
2019-01-24T10:40:02.001Z,94381.90
2019-01-24T10:42:31.080Z,94368.68
2019-01-24T10:45:07.531Z,94359.32
2019-01-24T10:50:12.259Z,94365.29
2019-01-24T10:52:41.314Z,94359.41
2019-01-24T10:55:20.152Z,94358.70
2019-01-24T10:57:49.219Z,94363.27
2019-01-24T11:00:34.093Z,94356.04
2019-01-24T11:03:03.155Z,94351.74
2019-01-24T11:05:44.028Z,94354.60
2019-01-24T11:10:49.752Z,94355.57
2019-01-24T11:13:21.027Z,94352.36
2019-01-24T11:18:36.918Z,94357.78
2019-01-24T11:21:05.991Z,94357.59
2019-01-24T11:23:35.071Z,94351.02
2019-01-24T11:26:04.128Z,94367.64
2019-01-24T11:31:08.976Z,94362.47
2019-01-24T11:33:48.194Z,94358.13
2019-01-24T11:36:17.256Z,94347.83
2019-01-24T11:38:46.367Z,94352.52
2019-01-24T11:41:15.399Z,94354.60
2019-01-24T11:46:20.753Z,94350.56
2019-01-24T11:48:51.780Z,94355.80
2019-01-24T11:51:21.836Z,94364.98
2019-01-24T11:53:53.191Z,94361.48
2019-01-24T11:56:24.019Z,94369.52
2019-01-24T11:58:53.987Z,94367.09
2019-01-24T12:01:23.047Z,94356.34
2019-01-24T12:03:52.106Z,94351.27
2019-01-24T12:06:25.203Z,94355.38
2019-01-24T12:08:54.324Z,94348.75
2019-01-24T12:11:23.404Z,94354.30
2019-01-24T12:13:52.460Z,94354.05
2019-01-24T12:16:21.689Z,94355.77
2019-01-24T12:18:50.799Z,94355.45
2019-01-24T12:21:19.799Z,94353.91
2019-01-24T12:23:49.049Z,94354.13
2019-01-24T12:26:18.094Z,94349.28
2019-01-24T12:28:48.139Z,94357.23
2019-01-24T12:31:18.155Z,94360.70
2019-01-24T12:36:31.384Z,94372.53
2019-01-24T12:39:00.452Z,94367.21
2019-01-24T12:44:08.691Z,94369.83
2019-01-24T12:46:37.753Z,94367.14
2019-01-24T12:49:06.814Z,94377.68
2019-01-24T12:51:39.192Z,94379.42
2019-01-24T12:54:09.303Z,94386.55
2019-01-24T12:56:38.355Z,94383.20
2019-01-24T12:59:10.744Z,94383.93
2019-01-24T13:01:43.779Z,94385.86
2019-01-24T13:04:17.748Z,94387.34
2019-01-24T13:06:46.787Z,94389.34
2019-01-24T13:09:20.293Z,94392.91
2019-01-24T13:11:49.362Z,94399.06
2019-01-24T13:14:30.769Z,94401.33
2019-01-24T13:16:59.904Z,94404.70
2019-01-24T13:22:04.239Z,94408.61
2019-01-24T13:27:09.368Z,94408.13
2019-01-24T13:29:46.335Z,94410.69
2019-01-24T13:32:15.395Z,94408.30
2019-01-24T13:34:48.050Z,94410.12
2019-01-24T13:37:17.095Z,94414.83
2019-01-24T13:39:46.208Z,94411.44
2019-01-24T13:42:15.267Z,94418.35
2019-01-24T13:44:44.321Z,94424.81
2019-01-24T13:47:14.330Z,94423.69
2019-01-24T13:49:43.457Z,94424.25
2019-01-24T13:52:13.461Z,94422.05
2019-01-24T13:54:43.459Z,94424.19
2019-01-24T13:59:48.744Z,94430.86
2019-01-24T14:02:19.844Z,94431.46
2019-01-24T14:04:48.907Z,94440.20
2019-01-24T14:07:17.996Z,94438.49
2019-01-24T14:09:49.073Z,94433.13
2019-01-24T14:12:19.061Z,94438.69
2019-01-24T14:14:48.135Z,94436.97
2019-01-24T14:17:17.181Z,94435.20
2019-01-24T14:19:47.168Z,94436.79
2019-01-24T14:22:16.247Z,94441.81
2019-01-24T14:24:45.289Z,94441.12
2019-01-24T14:27:15.339Z,94445.04
2019-01-24T14:29:43.533Z,94442.98
2019-01-24T14:34:48.335Z,94449.99
2019-01-24T14:37:17.408Z,94446.58
2019-01-24T14:42:29.651Z,94446.98
2019-01-24T14:45:06.103Z,94450.61
2019-01-24T14:47:48.140Z,94449.61
2019-01-24T14:52:55.865Z,94461.58
2019-01-24T14:55:30.446Z,94464.43
2019-01-24T14:57:59.791Z,94470.16
2019-01-24T15:00:38.421Z,94472.52
2019-01-24T15:03:07.486Z,94477.58
2019-01-24T15:05:43.472Z,94484.94
2019-01-24T15:08:12.527Z,94483.25
2019-01-24T15:10:41.580Z,94486.08
2019-01-24T15:13:10.655Z,94493.76
2019-01-24T15:18:15.458Z,94495.05
2019-01-24T15:20:44.499Z,94491.25
2019-01-24T15:23:14.498Z,94498.94
2019-01-24T15:25:44.560Z,94494.64
2019-01-24T15:28:17.042Z,94498.34
2019-01-24T15:30:50.902Z,94495.19
2019-01-24T15:33:23.910Z,94506.55
2019-01-24T15:35:53.936Z,94503.53
2019-01-24T15:38:24.924Z,94508.55
2019-01-24T15:40:53.999Z,94513.03
2019-01-24T15:43:23.062Z,94516.27
2019-01-24T15:45:53.258Z,94521.33
2019-01-24T15:48:29.475Z,94521.00
2019-01-24T15:50:59.454Z,94521.52
2019-01-24T15:53:32.448Z,94529.24
2019-01-24T15:56:01.645Z,94537.02
2019-01-24T15:58:30.674Z,94551.37
2019-01-24T16:00:59.723Z,94555.89
2019-01-24T16:03:29.793Z,94555.92
2019-01-24T16:08:38.356Z,94573.03
2019-01-24T16:11:14.633Z,94571.60
2019-01-24T16:16:24.171Z,94577.73
2019-01-24T16:18:53.240Z,94584.97
2019-01-24T16:21:23.222Z,94588.55
2019-01-24T16:23:52.306Z,94595.52
2019-01-24T16:26:21.360Z,94598.14
2019-01-24T16:28:58.355Z,94603.34
2019-01-24T16:31:27.412Z,94607.84
2019-01-24T16:33:57.439Z,94614.27
2019-01-24T16:36:26.487Z,94613.50
2019-01-24T16:41:38.859Z,94624.09
2019-01-24T16:44:08.818Z,94620.75
2019-01-24T16:46:45.155Z,94618.25
2019-01-24T16:49:14.241Z,94622.19
2019-01-24T16:54:20.968Z,94628.94
2019-01-24T16:56:50.966Z,94627.56
2019-01-24T16:59:20.027Z,94623.23
2019-01-24T17:01:49.108Z,94625.06
2019-01-24T17:04:18.160Z,94626.22
2019-01-24T17:06:47.225Z,94624.89
2019-01-24T17:09:16.304Z,94627.63
2019-01-24T17:11:56.699Z,94637.26
2019-01-24T17:14:26.755Z,94637.72
2019-01-24T17:17:03.012Z,94638.69
2019-01-24T17:24:46.724Z,94650.77
2019-01-24T17:27:15.773Z,94652.75
2019-01-24T17:29:46.761Z,94658.08
2019-01-24T17:32:15.839Z,94657.57
2019-01-24T17:35:01.014Z,94667.95
2019-01-24T17:37:30.067Z,94668.09
2019-01-24T17:39:59.132Z,94668.39
2019-01-24T17:42:28.183Z,94671.03
2019-01-24T17:45:04.847Z,94675.33
2019-01-24T17:47:34.883Z,94675.20
2019-01-24T17:50:03.990Z,94672.27
2019-01-24T17:52:33.068Z,94676.67
2019-01-24T17:55:02.190Z,94678.88
2019-01-24T17:57:31.245Z,94677.81
2019-01-24T18:00:00.296Z,94681.79
2019-01-24T18:02:29.363Z,94689.05
2019-01-24T18:05:02.572Z,94685.17
2019-01-24T18:07:31.633Z,94688.94
2019-01-24T18:15:25.902Z,94691.05
2019-01-24T18:17:56.114Z,94697.73
2019-01-24T18:20:25.200Z,94699.39
2019-01-24T18:22:59.545Z,94703.37
2019-01-24T18:25:28.607Z,94705.72
2019-01-24T18:27:58.628Z,94715.98
2019-01-24T18:30:27.951Z,94714.45
2019-01-24T18:32:57.968Z,94718.15
2019-01-24T18:35:50.070Z,94713.84
2019-01-24T18:38:19.156Z,94721.95
2019-01-24T18:40:51.767Z,94715.77
2019-01-24T18:43:20.866Z,94720.07
2019-01-24T18:46:00.300Z,94718.58
2019-01-24T18:51:07.039Z,94725.36
2019-01-24T18:56:18.766Z,94735.31
2019-01-24T19:04:08.107Z,94745.23
2019-01-24T19:06:38.149Z,94750.49
2019-01-24T19:09:07.259Z,94752.81
2019-01-24T19:11:38.279Z,94754.48
2019-01-24T19:14:07.334Z,94757.28
2019-01-24T19:16:48.815Z,94759.36
2019-01-24T19:19:17.934Z,94758.94
2019-01-24T19:24:35.604Z,94767.78
2019-01-24T19:27:06.583Z,94770.82
2019-01-24T19:29:37.564Z,94769.54
2019-01-24T19:32:06.624Z,94774.36
2019-01-24T19:37:11.376Z,94779.48
2019-01-24T19:39:40.438Z,94779.30
2019-01-24T19:42:09.624Z,94781.83
2019-01-24T19:44:54.317Z,94781.64
2019-01-24T19:47:23.386Z,94786.77
2019-01-24T19:55:14.267Z,94792.61
2019-01-24T19:57:43.329Z,94798.33
2019-01-24T20:00:14.966Z,94796.16
2019-01-24T20:02:51.214Z,94797.95
2019-01-24T20:05:20.308Z,94800.06
2019-01-24T20:07:51.286Z,94802.13
2019-01-24T20:10:21.234Z,94803.95
2019-01-24T20:12:50.335Z,94805.81
2019-01-24T20:15:19.417Z,94810.87
2019-01-24T20:17:49.655Z,94813.94
2019-01-24T20:20:18.674Z,94814.08
2019-01-24T20:22:47.831Z,94814.23
2019-01-24T20:25:18.416Z,94816.39
2019-01-24T20:27:52.456Z,94820.91
2019-01-24T20:30:22.344Z,94827.88
2019-01-24T20:35:47.836Z,94833.80
2019-01-24T20:40:57.303Z,94841.87
2019-01-24T20:43:35.317Z,94846.72
2019-01-24T20:48:39.227Z,94852.53
2019-01-24T20:51:12.417Z,94851.00
2019-01-24T20:53:41.771Z,94855.43
2019-01-24T20:56:21.545Z,94854.47
2019-01-24T20:58:54.263Z,94856.29
2019-01-24T21:01:24.351Z,94854.19
2019-01-24T21:06:35.805Z,94861.41
2019-01-24T21:09:22.035Z,94859.11
2019-01-24T21:12:02.211Z,94852.73
2019-01-24T21:14:36.766Z,94856.18
2019-01-24T21:19:45.175Z,94860.73
2019-01-24T21:24:53.561Z,94856.63
2019-01-24T21:27:22.639Z,94862.64
2019-01-24T21:29:51.712Z,94865.36
2019-01-24T21:32:20.813Z,94865.64
2019-01-24T21:34:49.967Z,94862.00
2019-01-24T21:37:19.039Z,94869.03
2019-01-24T21:39:48.175Z,94868.16
2019-01-24T21:42:18.220Z,94873.05
2019-01-24T21:44:47.269Z,94870.67
2019-01-24T21:47:16.380Z,94873.95
2019-01-24T21:49:45.514Z,94876.71
2019-01-24T21:52:28.537Z,94882.19
2019-01-24T21:55:19.440Z,94880.22
2019-01-24T21:57:48.544Z,94881.64
2019-01-24T22:00:19.382Z,94887.57
2019-01-24T22:02:48.625Z,94893.97
2019-01-24T22:05:28.672Z,94890.34
2019-01-24T22:10:52.126Z,94896.97
2019-01-24T22:13:42.314Z,94899.48
2019-01-24T22:16:30.267Z,94901.15
2019-01-24T22:21:34.690Z,94910.89
2019-01-24T22:24:03.957Z,94911.67
2019-01-24T22:26:33.956Z,94916.42
2019-01-24T22:31:39.184Z,94908.13
2019-01-24T22:34:27.066Z,94908.30
2019-01-24T22:39:43.085Z,94917.94
2019-01-24T22:42:22.027Z,94925.81
2019-01-24T22:44:51.108Z,94932.17
2019-01-24T22:49:59.587Z,94922.66
2019-01-24T22:52:28.692Z,94923.31
2019-01-24T22:58:40.820Z,94936.44
2019-01-24T23:01:15.676Z,94928.14
2019-01-24T23:03:44.743Z,94933.19
2019-01-24T23:06:17.322Z,94927.73
2019-01-24T23:08:46.399Z,94929.20
2019-01-24T23:13:57.768Z,94926.00
2019-01-24T23:16:26.924Z,94926.98
2019-01-24T23:18:56.026Z,94924.94
2019-01-24T23:21:26.192Z,94925.17
2019-01-24T23:26:34.392Z,94923.18
2019-01-24T23:31:46.032Z,94928.91
2019-01-24T23:34:15.088Z,94928.25
2019-01-24T23:36:44.154Z,94923.82
2019-01-24T23:39:24.042Z,94923.28
2019-01-24T23:44:34.891Z,94919.55
2019-01-24T23:47:05.345Z,94915.96
2019-01-24T23:49:34.427Z,94916.81
2019-01-24T23:54:42.230Z,94920.84
2019-01-24T23:57:11.287Z,94920.62
2019-01-24T23:59:40.344Z,94918.27
